sensor_id;sensor_type;location;lat;lon;timestamp;pressure;altitude;pressure_sealevel;temperature;humidity
37860;BME280;23698;52.014;5.190;2023-09-18T05:02:56;100173.75;;;28.40;100.00
37860;BME280;23698;52.014;5.190;2023-09-18T05:05:43;100176.94;;;27.81;100.00
37860;BME280;23698;52.014;5.190;2023-09-18T05:08:30;100171.94;;;27.20;100.00
37860;BME280;23698;52.014;5.190;2023-09-18T05:11:17;100149.97;;;28.16;100.00
37860;BME280;23698;52.014;5.190;2023-09-18T05:14:05;100155.38;;;28.83;100.00
37860;BME280;23698;52.014;5.190;2023-09-18T08:30:46;100233.59;;;26.46;100.00
37860;BME280;23698;52.014;5.190;2023-09-18T08:33:33;100240.03;;;26.05;100.00
37860;BME280;23698;52.014;5.190;2023-09-18T08:36:22;100223.06;;;26.56;100.00
37860;BME280;23698;52.014;5.190;2023-09-18T08:39:09;100232.13;;;27.07;100.00
37860;BME280;23698;52.014;5.190;2023-09-18T08:41:58;100233.09;;;27.11;100.00
37860;BME280;23698;52.014;5.190;2023-09-18T08:44:48;100238.84;;;27.15;100.00
37860;BME280;23698;52.014;5.190;2023-09-18T08:47:39;100233.88;;;28.06;100.00
37860;BME280;23698;52.014;5.190;2023-09-18T08:50:28;100236.25;;;27.19;100.00
37860;BME280;23698;52.014;5.190;2023-09-18T08:53:15;100244.94;;;27.48;100.00
37860;BME280;23698;52.014;5.190;2023-09-18T08:56:04;100254.22;;;27.66;100.00
37860;BME280;23698;52.014;5.190;2023-09-18T08:58:50;100253.38;;;27.66;100.00
37860;BME280;23698;52.014;5.190;2023-09-18T09:01:39;100259.53;;;27.23;100.00
37860;BME280;23698;52.014;5.190;2023-09-18T09:04:27;100272.88;;;27.66;100.00
37860;BME280;23698;52.014;5.190;2023-09-18T09:07:13;100285.66;;;27.67;100.00
37860;BME280;23698;52.014;5.190;2023-09-18T09:10:00;100290.72;;;27.34;100.00
37860;BME280;23698;52.014;5.190;2023-09-18T09:12:48;100298.56;;;29.04;100.00
37860;BME280;23698;52.014;5.190;2023-09-18T09:15:43;100290.88;;;27.91;100.00
37860;BME280;23698;52.014;5.190;2023-09-18T09:18:32;100289.47;;;27.80;100.00
37860;BME280;23698;52.014;5.190;2023-09-18T09:21:20;100296.88;;;28.24;100.00
37860;BME280;23698;52.014;5.190;2023-09-18T09:24:07;100298.72;;;29.43;100.00
37860;BME280;23698;52.014;5.190;2023-09-18T09:26:57;100298.94;;;28.59;100.00
37860;BME280;23698;52.014;5.190;2023-09-18T09:29:57;100308.72;;;29.44;100.00
37860;BME280;23698;52.014;5.190;2023-09-18T09:32:47;100306.66;;;28.13;100.00
37860;BME280;23698;52.014;5.190;2023-09-18T09:35:35;100310.53;;;28.52;100.00
37860;BME280;23698;52.014;5.190;2023-09-18T09:38:30;100319.34;;;27.57;100.00
37860;BME280;23698;52.014;5.190;2023-09-18T09:41:19;100307.34;;;27.02;100.00
37860;BME280;23698;52.014;5.190;2023-09-18T09:44:07;100307.06;;;28.29;100.00
37860;BME280;23698;52.014;5.190;2023-09-18T09:46:54;100310.34;;;27.60;100.00
37860;BME280;23698;52.014;5.190;2023-09-18T09:49:47;100320.31;;;28.32;100.00
37860;BME280;23698;52.014;5.190;2023-09-18T09:52:34;100327.25;;;27.95;100.00
37860;BME280;23698;52.014;5.190;2023-09-18T09:55:24;100335.50;;;27.77;100.00
37860;BME280;23698;52.014;5.190;2023-09-18T09:58:13;100330.91;;;27.50;100.00
37860;BME280;23698;52.014;5.190;2023-09-18T10:01:03;100331.22;;;28.02;100.00
37860;BME280;23698;52.014;5.190;2023-09-18T10:03:54;100334.66;;;28.57;100.00
37860;BME280;23698;52.014;5.190;2023-09-18T10:06:43;100325.25;;;28.44;100.00
37860;BME280;23698;52.014;5.190;2023-09-18T10:09:30;100329.94;;;28.66;100.00
37860;BME280;23698;52.014;5.190;2023-09-18T10:12:19;100320.25;;;27.21;100.00
37860;BME280;23698;52.014;5.190;2023-09-18T10:21:40;100325.59;;;27.94;100.00
37860;BME280;23698;52.014;5.190;2023-09-18T10:24:44;100339.44;;;28.65;100.00
37860;BME280;23698;52.014;5.190;2023-09-18T10:27:40;100332.25;;;27.84;100.00
37860;BME280;23698;52.014;5.190;2023-09-18T10:30:38;100333.19;;;28.59;100.00
37860;BME280;23698;52.014;5.190;2023-09-18T10:33:28;100333.53;;;28.09;100.00
37860;BME280;23698;52.014;5.190;2023-09-18T10:36:16;100339.28;;;28.13;100.00
37860;BME280;23698;52.014;5.190;2023-09-18T10:39:04;100337.13;;;27.78;100.00
37860;BME280;23698;52.014;5.190;2023-09-18T10:41:55;100341.97;;;28.35;100.00
37860;BME280;23698;52.014;5.190;2023-09-18T10:44:45;100343.72;;;28.71;100.00
37860;BME280;23698;52.014;5.190;2023-09-18T10:47:32;100340.53;;;27.98;100.00
37860;BME280;23698;52.014;5.190;2023-09-18T10:50:25;100343.19;;;28.69;100.00
37860;BME280;23698;52.014;5.190;2023-09-18T10:53:12;100334.84;;;28.69;100.00
37860;BME280;23698;52.014;5.190;2023-09-18T10:56:00;100327.31;;;28.87;100.00
37860;BME280;23698;52.014;5.190;2023-09-18T10:58:55;100326.66;;;28.81;100.00
37860;BME280;23698;52.014;5.190;2023-09-18T11:01:43;100330.75;;;28.84;100.00
37860;BME280;23698;52.014;5.190;2023-09-18T11:04:33;100332.41;;;29.37;100.00
37860;BME280;23698;52.014;5.190;2023-09-18T11:07:22;100320.19;;;29.51;100.00
37860;BME280;23698;52.014;5.190;2023-09-18T11:10:25;100312.44;;;29.65;100.00
37860;BME280;23698;52.014;5.190;2023-09-18T11:13:28;100323.47;;;29.53;100.00
37860;BME280;23698;52.014;5.190;2023-09-18T11:16:17;100316.16;;;28.61;100.00
37860;BME280;23698;52.014;5.190;2023-09-18T11:19:11;100324.13;;;29.76;100.00
37860;BME280;23698;52.014;5.190;2023-09-18T11:22:07;100322.69;;;29.09;100.00
37860;BME280;23698;52.014;5.190;2023-09-18T11:25:36;100321.28;;;29.85;100.00
37860;BME280;23698;52.014;5.190;2023-09-18T11:28:24;100317.63;;;28.93;100.00
37860;BME280;23698;52.014;5.190;2023-09-18T11:31:11;100310.88;;;28.59;100.00
37860;BME280;23698;52.014;5.190;2023-09-18T11:33:58;100312.00;;;29.37;100.00
37860;BME280;23698;52.014;5.190;2023-09-18T11:36:46;100317.94;;;28.66;100.00
37860;BME280;23698;52.014;5.190;2023-09-18T11:39:33;100315.94;;;28.49;100.00
37860;BME280;23698;52.014;5.190;2023-09-18T11:42:22;100311.06;;;28.80;100.00
37860;BME280;23698;52.014;5.190;2023-09-18T11:45:16;100318.00;;;28.34;100.00
37860;BME280;23698;52.014;5.190;2023-09-18T11:48:03;100309.25;;;28.58;100.00
37860;BME280;23698;52.014;5.190;2023-09-18T11:50:52;100310.63;;;29.69;100.00
37860;BME280;23698;52.014;5.190;2023-09-18T11:53:41;100317.38;;;29.60;100.00
37860;BME280;23698;52.014;5.190;2023-09-18T11:56:29;100319.63;;;29.75;100.00
37860;BME280;23698;52.014;5.190;2023-09-18T11:59:15;100318.28;;;29.08;100.00
37860;BME280;23698;52.014;5.190;2023-09-18T12:02:05;100316.47;;;28.86;100.00
37860;BME280;23698;52.014;5.190;2023-09-18T12:04:53;100307.91;;;30.59;100.00
37860;BME280;23698;52.014;5.190;2023-09-18T12:07:40;100310.56;;;30.55;100.00
37860;BME280;23698;52.014;5.190;2023-09-18T12:10:32;100300.22;;;29.14;100.00
37860;BME280;23698;52.014;5.190;2023-09-18T12:13:18;100305.00;;;29.87;100.00
37860;BME280;23698;52.014;5.190;2023-09-18T12:16:05;100308.38;;;29.54;100.00
37860;BME280;23698;52.014;5.190;2023-09-18T12:18:52;100310.56;;;28.96;100.00
37860;BME280;23698;52.014;5.190;2023-09-18T12:21:40;100304.44;;;29.55;100.00
37860;BME280;23698;52.014;5.190;2023-09-18T12:24:27;100307.63;;;28.84;100.00
37860;BME280;23698;52.014;5.190;2023-09-18T12:27:15;100303.84;;;29.23;100.00
37860;BME280;23698;52.014;5.190;2023-09-18T12:30:03;100304.84;;;28.92;100.00
37860;BME280;23698;52.014;5.190;2023-09-18T12:32:51;100305.66;;;29.02;100.00
37860;BME280;23698;52.014;5.190;2023-09-18T12:35:40;100305.22;;;29.64;100.00
37860;BME280;23698;52.014;5.190;2023-09-18T12:38:26;100305.66;;;29.84;100.00
37860;BME280;23698;52.014;5.190;2023-09-18T12:41:13;100306.47;;;29.19;100.00
37860;BME280;23698;52.014;5.190;2023-09-18T12:44:01;100309.09;;;29.89;100.00
37860;BME280;23698;52.014;5.190;2023-09-18T12:46:49;100295.78;;;29.13;100.00
37860;BME280;23698;52.014;5.190;2023-09-18T12:49:37;100298.38;;;30.21;100.00
37860;BME280;23698;52.014;5.190;2023-09-18T12:52:25;100299.88;;;29.33;100.00
37860;BME280;23698;52.014;5.190;2023-09-18T12:55:24;100291.03;;;29.87;100.00
37860;BME280;23698;52.014;5.190;2023-09-18T12:58:12;100277.97;;;30.29;100.00
37860;BME280;23698;52.014;5.190;2023-09-18T13:01:04;100270.59;;;29.95;100.00
37860;BME280;23698;52.014;5.190;2023-09-18T13:03:53;100251.75;;;30.64;100.00
37860;BME280;23698;52.014;5.190;2023-09-18T13:06:40;100260.53;;;29.17;100.00
37860;BME280;23698;52.014;5.190;2023-09-18T13:09:27;100249.22;;;30.71;100.00
37860;BME280;23698;52.014;5.190;2023-09-18T13:12:14;100250.03;;;30.50;100.00
37860;BME280;23698;52.014;5.190;2023-09-18T13:15:02;100240.16;;;29.25;100.00
37860;BME280;23698;52.014;5.190;2023-09-18T13:17:55;100250.13;;;30.33;100.00
37860;BME280;23698;52.014;5.190;2023-09-18T13:20:43;100244.78;;;29.60;100.00
37860;BME280;23698;52.014;5.190;2023-09-18T13:23:30;100240.69;;;29.96;100.00
37860;BME280;23698;52.014;5.190;2023-09-18T13:26:18;100224.97;;;29.44;100.00
37860;BME280;23698;52.014;5.190;2023-09-18T13:29:04;100218.31;;;30.67;100.00
37860;BME280;23698;52.014;5.190;2023-09-18T13:31:51;100220.63;;;29.16;100.00
37860;BME280;23698;52.014;5.190;2023-09-18T13:34:39;100207.88;;;28.63;100.00
37860;BME280;23698;52.014;5.190;2023-09-18T13:37:25;100216.06;;;28.86;100.00
37860;BME280;23698;52.014;5.190;2023-09-18T13:40:12;100208.25;;;30.03;100.00
37860;BME280;23698;52.014;5.190;2023-09-18T13:42:59;100200.09;;;29.60;100.00
37860;BME280;23698;52.014;5.190;2023-09-18T13:45:46;100191.91;;;30.77;100.00
37860;BME280;23698;52.014;5.190;2023-09-18T13:48:32;100195.06;;;29.83;100.00
37860;BME280;23698;52.014;5.190;2023-09-18T13:51:20;100198.81;;;29.57;100.00
37860;BME280;23698;52.014;5.190;2023-09-18T13:54:07;100194.31;;;29.65;100.00
37860;BME280;23698;52.014;5.190;2023-09-18T13:56:54;100193.22;;;29.10;100.00
37860;BME280;23698;52.014;5.190;2023-09-18T13:59:42;100188.63;;;29.52;100.00
37860;BME280;23698;52.014;5.190;2023-09-18T14:02:28;100182.47;;;29.68;100.00
37860;BME280;23698;52.014;5.190;2023-09-18T14:05:15;100166.88;;;29.97;100.00
37860;BME280;23698;52.014;5.190;2023-09-18T14:08:05;100188.13;;;29.89;100.00
37860;BME280;23698;52.014;5.190;2023-09-18T14:10:51;100184.81;;;30.92;100.00
37860;BME280;23698;52.014;5.190;2023-09-18T14:13:38;100176.38;;;30.67;100.00
37860;BME280;23698;52.014;5.190;2023-09-18T14:16:25;100164.53;;;31.78;100.00
37860;BME280;23698;52.014;5.190;2023-09-18T14:19:11;100171.22;;;30.69;100.00
37860;BME280;23698;52.014;5.190;2023-09-18T14:21:58;100176.50;;;29.87;100.00
37860;BME280;23698;52.014;5.190;2023-09-18T14:24:51;100175.00;;;29.04;100.00
37860;BME280;23698;52.014;5.190;2023-09-18T14:27:39;100167.31;;;28.83;100.00
37860;BME280;23698;52.014;5.190;2023-09-18T14:30:25;100159.84;;;28.66;100.00
37860;BME280;23698;52.014;5.190;2023-09-18T14:33:16;100151.22;;;29.74;100.00
37860;BME280;23698;52.014;5.190;2023-09-18T14:36:03;100170.13;;;28.39;100.00
37860;BME280;23698;52.014;5.190;2023-09-18T14:38:50;100164.84;;;28.99;100.00
37860;BME280;23698;52.014;5.190;2023-09-18T14:41:38;100149.97;;;28.77;100.00
37860;BME280;23698;52.014;5.190;2023-09-18T14:44:25;100156.66;;;29.80;100.00
37860;BME280;23698;52.014;5.190;2023-09-18T14:47:12;100159.94;;;29.73;100.00
37860;BME280;23698;52.014;5.190;2023-09-18T14:49:59;100162.94;;;28.38;100.00
37860;BME280;23698;52.014;5.190;2023-09-18T14:52:47;100179.97;;;28.89;100.00
37860;BME280;23698;52.014;5.190;2023-09-18T14:55:33;100234.38;;;25.21;100.00
37860;BME280;23698;52.014;5.190;2023-09-18T14:58:22;100265.06;;;23.14;100.00
37860;BME280;23698;52.014;5.190;2023-09-18T16:07:24;100150.78;;;27.33;100.00
37860;BME280;23698;52.014;5.190;2023-09-18T17:15:50;100162.03;;;24.90;100.00
37860;BME280;23698;52.014;5.190;2023-09-18T17:18:36;100164.84;;;25.18;100.00
37860;BME280;23698;52.014;5.190;2023-09-18T17:21:25;100173.78;;;24.68;100.00
37860;BME280;23698;52.014;5.190;2023-09-18T17:24:12;100178.06;;;25.68;100.00
37860;BME280;23698;52.014;5.190;2023-09-18T17:26:58;100182.50;;;25.08;100.00
37860;BME280;23698;52.014;5.190;2023-09-18T17:29:46;100175.47;;;25.30;100.00
37860;BME280;23698;52.014;5.190;2023-09-18T17:32:34;100181.22;;;24.16;100.00
37860;BME280;23698;52.014;5.190;2023-09-18T17:35:23;100189.75;;;26.06;100.00
37860;BME280;23698;52.014;5.190;2023-09-18T17:38:10;100192.63;;;25.46;100.00
37860;BME280;23698;52.014;5.190;2023-09-18T17:40:58;100192.44;;;25.56;100.00
37860;BME280;23698;52.014;5.190;2023-09-18T17:43:45;100196.94;;;24.91;100.00
37860;BME280;23698;52.014;5.190;2023-09-18T17:46:31;100191.81;;;25.73;100.00
37860;BME280;23698;52.014;5.190;2023-09-18T17:49:23;100198.66;;;25.20;100.00
37860;BME280;23698;52.014;5.190;2023-09-18T17:52:12;100210.41;;;24.98;100.00
37860;BME280;23698;52.014;5.190;2023-09-18T17:55:01;100206.63;;;25.82;100.00
37860;BME280;23698;52.014;5.190;2023-09-18T17:57:49;100214.88;;;24.80;100.00
37860;BME280;23698;52.014;5.190;2023-09-18T18:00:43;100219.31;;;24.24;100.00
37860;BME280;23698;52.014;5.190;2023-09-18T18:03:33;100223.19;;;24.80;100.00
37860;BME280;23698;52.014;5.190;2023-09-18T18:06:21;100213.44;;;25.15;100.00
37860;BME280;23698;52.014;5.190;2023-09-18T18:09:07;100215.22;;;24.92;100.00
37860;BME280;23698;52.014;5.190;2023-09-18T18:11:54;100220.78;;;24.92;100.00
37860;BME280;23698;52.014;5.190;2023-09-18T18:14:42;100211.34;;;25.07;100.00
37860;BME280;23698;52.014;5.190;2023-09-18T18:17:28;100220.38;;;24.66;100.00
37860;BME280;23698;52.014;5.190;2023-09-18T18:20:15;100225.41;;;24.64;100.00
37860;BME280;23698;52.014;5.190;2023-09-18T18:23:03;100222.31;;;23.84;100.00
37860;BME280;23698;52.014;5.190;2023-09-18T18:25:50;100218.03;;;24.73;100.00
37860;BME280;23698;52.014;5.190;2023-09-18T18:28:37;100224.91;;;24.19;100.00
37860;BME280;23698;52.014;5.190;2023-09-18T18:31:23;100221.31;;;25.27;100.00
37860;BME280;23698;52.014;5.190;2023-09-18T18:34:10;100223.75;;;24.96;100.00
37860;BME280;23698;52.014;5.190;2023-09-18T18:36:57;100218.31;;;24.91;100.00
37860;BME280;23698;52.014;5.190;2023-09-18T18:39:45;100229.56;;;24.80;100.00
37860;BME280;23698;52.014;5.190;2023-09-18T18:42:32;100240.47;;;24.53;100.00
37860;BME280;23698;52.014;5.190;2023-09-18T18:45:18;100239.28;;;24.78;100.00
37860;BME280;23698;52.014;5.190;2023-09-18T18:48:07;100246.19;;;24.80;100.00
37860;BME280;23698;52.014;5.190;2023-09-18T18:50:59;100235.41;;;24.60;100.00
37860;BME280;23698;52.014;5.190;2023-09-18T18:53:47;100246.28;;;24.56;100.00
37860;BME280;23698;52.014;5.190;2023-09-18T18:56:37;100242.47;;;24.71;100.00
37860;BME280;23698;52.014;5.190;2023-09-18T18:59:24;100244.31;;;24.57;100.00
37860;BME280;23698;52.014;5.190;2023-09-18T19:38:04;100293.94;;;24.34;100.00
37860;BME280;23698;52.014;5.190;2023-09-18T19:41:00;100303.69;;;23.54;100.00
37860;BME280;23698;52.014;5.190;2023-09-18T19:43:51;100308.69;;;23.52;100.00
37860;BME280;23698;52.014;5.190;2023-09-18T19:46:39;100313.78;;;23.40;100.00
37860;BME280;23698;52.014;5.190;2023-09-18T19:49:25;100329.75;;;23.77;100.00
37860;BME280;23698;52.014;5.190;2023-09-18T19:52:12;100321.84;;;24.62;100.00
37860;BME280;23698;52.014;5.190;2023-09-18T19:55:04;100333.84;;;24.09;100.00
37860;BME280;23698;52.014;5.190;2023-09-18T19:57:53;100334.56;;;24.63;100.00
37860;BME280;23698;52.014;5.190;2023-09-18T22:00:56;100491.75;;;23.64;100.00
37860;BME280;23698;52.014;5.190;2023-09-18T22:03:50;100504.22;;;24.01;100.00
37860;BME280;23698;52.014;5.190;2023-09-18T22:06:38;100509.34;;;24.72;100.00
37860;BME280;23698;52.014;5.190;2023-09-18T22:09:31;100530.72;;;23.68;100.00
37860;BME280;23698;52.014;5.190;2023-09-18T22:12:23;100525.22;;;23.13;100.00
